Time;durP1;ratioP1;P1;durP2;ratioP2;P2;SDS_P1;SDS_P2;PMS_P1;PMS_P2;Temp;Humidity;BMP_temperature;BMP_pressure;BME280_temperature;BME280_humidity;BME280_pressure;Samples;Min_cycle;Max_cycle;Signal;HPM_P1;HPM_P2
2020/12/24 00:01:23;;;;;;;;;;;10.50;99.90;;;;;;4971329;28;19921;-89
2020/12/24 00:03:48;;;;;;;;;;;10.50;99.90;;;;;;4970854;28;19918;-89
2020/12/24 00:06:16;;;;;;;;;;;10.50;99.90;;;;;;4982019;28;20013;-89
2020/12/24 00:08:42;;;;;;;;;;;10.50;99.90;;;;;;4977563;28;19946;-91
2020/12/24 00:11:08;;;;;;;;;;;10.40;99.90;;;;;;4981560;28;19958;-90
2020/12/24 00:13:34;;;;;;;;;;;10.40;99.90;;;;;;4970170;28;20083;-89
2020/12/24 00:16:00;;;;;;;;;;;10.40;99.90;;;;;;4973433;28;20401;-89
2020/12/24 00:18:28;;;;;;;;;;;10.40;99.90;;;;;;4981351;28;19926;-88
2020/12/24 00:20:53;;;;;;;;;;;10.40;99.90;;;;;;4971656;28;19925;-90
2020/12/24 00:23:19;;;;;;;;;;;10.40;99.90;;;;;;4982412;28;19918;-89
2020/12/24 00:25:44;;;;;;;;;;;10.40;99.90;;;;;;4970810;28;20010;-90
2020/12/24 00:28:12;;;;;;;;;;;10.40;99.90;;;;;;4970221;28;19914;-89
2020/12/24 00:30:41;;;;;;;;;;;10.30;99.90;;;;;;4970696;28;19956;-89
2020/12/24 00:33:10;;;;;;;;;;;10.30;99.90;;;;;;4970122;28;19957;-90
2020/12/24 00:35:38;;;;;;;;;;;10.30;99.90;;;;;;4970616;28;20366;-90
2020/12/24 00:38:04;;;;;;;;;;;10.40;99.90;;;;;;4972805;28;19914;-89
2020/12/24 00:40:29;;;;;;;;;;;10.40;99.90;;;;;;4993658;28;20012;-89
2020/12/24 00:43:00;;;;;;;;;;;10.50;99.90;;;;;;4979565;28;19910;-90
2020/12/24 00:45:27;;;;;;;;;;;10.50;99.90;;;;;;4974391;28;19921;-90
2020/12/24 00:47:55;;;;;;;;;;;10.50;99.90;;;;;;4975750;28;19914;-89
2020/12/24 00:50:21;;;;;;;;;;;10.50;99.90;;;;;;4974130;28;19911;-90
2020/12/24 00:52:46;;;;;;;;;;;10.40;99.90;;;;;;4973912;28;19926;-87
2020/12/24 00:55:17;;;;;;;;;;;10.40;99.90;;;;;;4973666;28;19926;-89
2020/12/24 00:57:42;;;;;;;;;;;10.30;99.90;;;;;;4974734;28;19914;-88
2020/12/24 01:00:08;;;;;;;;;;;10.20;99.90;;;;;;4974009;28;19965;-88
2020/12/24 01:02:34;;;;;;;;;;;10.20;99.90;;;;;;4973849;28;19930;-89
2020/12/24 01:05:00;;;;;;;;;;;10.20;99.90;;;;;;4974256;28;20005;-89
2020/12/24 01:07:25;;;;;;;;;;;10.10;99.90;;;;;;4973735;28;20386;-88
2020/12/24 01:09:51;;;;;;;;;;;10.10;99.90;;;;;;4985758;28;19921;-89
2020/12/24 01:12:19;;;;;;;;;;;10.00;99.90;;;;;;4975501;28;20323;-89
2020/12/24 01:14:44;;;;;;;;;;;10.00;99.90;;;;;;4973631;28;20438;-89
2020/12/24 01:17:10;;;;;;;;;;;10.00;99.90;;;;;;4985938;28;20020;-89
2020/12/24 01:19:35;;;;;;;;;;;9.90;99.90;;;;;;4958685;28;19914;-87
2020/12/24 01:22:01;;;;;;;;;;;9.80;99.90;;;;;;4974965;28;19914;-89
2020/12/24 01:24:26;;;;;;;;;;;9.80;99.90;;;;;;4973498;28;20357;-88
2020/12/24 01:26:52;;;;;;;;;;;9.80;99.90;;;;;;4981791;28;19964;-88
2020/12/24 01:29:18;;;;;;;;;;;9.80;99.90;;;;;;4978145;28;19914;-88
2020/12/24 01:31:44;;;;;;;;;;;9.80;99.90;;;;;;4973480;28;20013;-88
2020/12/24 01:34:10;;;;;;;;;;;9.80;99.90;;;;;;4973244;28;19918;-88
2020/12/24 01:36:38;;;;;;;;;;;9.80;99.90;;;;;;4973742;28;19921;-88
2020/12/24 01:39:03;;;;;;;;;;;9.70;99.90;;;;;;4973264;28;19917;-89
2020/12/24 01:41:31;;;;;;;;;;;9.80;99.90;;;;;;4989118;28;19925;-90
2020/12/24 01:43:56;;;;;;;;;;;9.70;99.90;;;;;;4972901;28;19914;-89
2020/12/24 01:46:22;;;;;;;;;;;9.70;99.90;;;;;;4973373;28;20273;-89
2020/12/24 01:48:52;;;;;;;;;;;9.70;99.90;;;;;;4973484;28;19910;-89
2020/12/24 01:51:27;;;;;;;;;;;9.70;99.90;;;;;;4971927;28;19914;-90
2020/12/24 01:53:54;;;;;;;;;;;9.60;99.90;;;;;;4979534;28;19921;-87
2020/12/24 01:56:21;;;;;;;;;;;9.50;99.90;;;;;;4979917;28;19921;-91
2020/12/24 01:58:50;;;;;;;;;;;9.50;99.90;;;;;;4974154;28;19914;-89
2020/12/24 02:01:16;;;;;;;;;;;9.50;99.90;;;;;;4968362;28;20302;-89
2020/12/24 02:03:45;;;;;;;;;;;9.50;99.90;;;;;;4970651;28;20354;-89
2020/12/24 02:06:10;;;;;;;;;;;9.40;99.90;;;;;;4972778;28;20017;-89
2020/12/24 02:08:36;;;;;;;;;;;9.40;99.90;;;;;;4974204;28;19997;-90
2020/12/24 02:11:02;;;;;;;;;;;9.30;99.90;;;;;;4984245;28;19914;-89
2020/12/24 02:13:32;;;;;;;;;;;9.40;99.90;;;;;;4972756;28;19922;-89
2020/12/24 02:15:57;;;;;;;;;;;9.30;99.90;;;;;;4975913;28;20009;-90
2020/12/24 02:18:25;;;;;;;;;;;9.40;99.90;;;;;;4983635;28;20009;-89
2020/12/24 02:20:53;;;;;;;;;;;9.30;99.90;;;;;;4972932;28;20382;-89
2020/12/24 02:23:18;;;;;;;;;;;9.30;99.90;;;;;;4972418;28;19917;-89
2020/12/24 02:25:44;;;;;;;;;;;9.20;99.90;;;;;;4972593;28;19917;-91
2020/12/24 02:28:09;;;;;;;;;;;9.20;99.90;;;;;;4972227;28;19915;-88
2020/12/24 02:30:35;;;;;;;;;;;9.20;99.90;;;;;;4973065;28;19914;-88
2020/12/24 02:33:06;;;;;;;;;;;9.20;99.90;;;;;;4972289;28;19922;-89
2020/12/24 02:35:34;;;;;;;;;;;9.10;99.90;;;;;;4973039;28;20324;-90
2020/12/24 02:38:00;;;;;;;;;;;9.10;99.90;;;;;;4972698;28;19918;-89
2020/12/24 02:40:26;;;;;;;;;;;9.10;99.90;;;;;;4972494;28;20314;-89
2020/12/24 02:42:53;;;;;;;;;;;9.00;99.90;;;;;;4972740;28;19914;-90
2020/12/24 02:45:21;;;;;;;;;;;9.10;99.90;;;;;;4972135;28;19958;-90
2020/12/24 02:47:47;;;;;;;;;;;9.10;99.90;;;;;;4972078;28;19918;-89
2020/12/24 02:50:13;;;;;;;;;;;9.00;99.90;;;;;;4971922;28;20267;-91
2020/12/24 02:52:38;;;;;;;;;;;9.00;99.90;;;;;;4972349;28;19922;-89
2020/12/24 02:55:04;;;;;;;;;;;9.00;99.90;;;;;;4973030;28;20009;-89
2020/12/24 02:57:30;;;;;;;;;;;9.00;99.90;;;;;;4972448;28;19914;-89
2020/12/24 02:59:56;;;;;;;;;;;9.00;99.90;;;;;;4972274;28;19968;-90
2020/12/24 03:02:21;;;;;;;;;;;8.90;99.90;;;;;;4972036;28;20370;-90
2020/12/24 03:04:49;;;;;;;;;;;8.90;99.90;;;;;;4972037;28;20290;-90
2020/12/24 03:07:14;;;;;;;;;;;8.90;99.90;;;;;;4972000;28;19914;-90
2020/12/24 03:09:40;;;;;;;;;;;8.90;99.90;;;;;;4982468;28;19910;-89
2020/12/24 03:12:05;;;;;;;;;;;8.90;99.90;;;;;;4991350;28;20305;-89
2020/12/24 03:14:31;;;;;;;;;;;8.80;99.90;;;;;;4991234;28;19961;-90
2020/12/24 03:16:59;;;;;;;;;;;8.80;99.90;;;;;;4993745;28;19932;-89
2020/12/24 03:19:27;;;;;;;;;;;8.80;99.90;;;;;;4994652;28;20462;-89
2020/12/24 03:21:52;;;;;;;;;;;8.80;99.90;;;;;;5010762;28;19921;-89
2020/12/24 03:24:18;;;;;;;;;;;8.80;99.90;;;;;;4994782;28;19968;-91
2020/12/24 03:26:43;;;;;;;;;;;8.70;99.90;;;;;;5012396;28;19913;-89
2020/12/24 03:29:11;;;;;;;;;;;8.70;99.90;;;;;;4991080;28;19988;-90
2020/12/24 03:31:37;;;;;;;;;;;8.70;99.90;;;;;;4975742;28;19929;-91
2020/12/24 03:34:02;;;;;;;;;;;8.60;99.90;;;;;;4974491;28;19921;-88
2020/12/24 03:36:28;;;;;;;;;;;8.70;99.90;;;;;;4980904;28;19914;-89
2020/12/24 03:38:53;;;;;;;;;;;8.70;99.90;;;;;;4981604;28;19928;-90
2020/12/24 03:41:21;;;;;;;;;;;8.60;99.90;;;;;;4993613;28;20003;-90
2020/12/24 03:43:49;;;;;;;;;;;8.60;99.90;;;;;;4974438;28;19968;-90
2020/12/24 03:46:14;;;;;;;;;;;8.60;99.90;;;;;;4974684;28;19914;-89
2020/12/24 03:48:42;;;;;;;;;;;8.60;99.90;;;;;;4974978;28;19937;-90
2020/12/24 03:51:08;;;;;;;;;;;8.60;99.90;;;;;;4975380;28;19914;-91
2020/12/24 03:53:33;;;;;;;;;;;8.60;99.90;;;;;;4974878;28;19922;-90
2020/12/24 03:56:02;;;;;;;;;;;8.60;99.90;;;;;;4974960;28;19918;-89
2020/12/24 03:58:30;;;;;;;;;;;8.50;99.90;;;;;;4974616;28;19921;-88
2020/12/24 04:00:55;;;;;;;;;;;8.50;99.90;;;;;;4974760;28;19914;-89
2020/12/24 04:03:23;;;;;;;;;;;8.50;99.90;;;;;;4974433;28;19998;-89
2020/12/24 04:05:48;;;;;;;;;;;8.50;99.90;;;;;;4974253;28;19921;-89
2020/12/24 04:08:16;;;;;;;;;;;8.40;99.90;;;;;;4974992;28;19913;-89
2020/12/24 04:10:44;;;;;;;;;;;8.40;99.90;;;;;;4975627;28;19914;-89
2020/12/24 04:13:12;;;;;;;;;;;8.40;99.90;;;;;;4973965;28;19929;-91
2020/12/24 04:15:38;;;;;;;;;;;8.40;99.90;;;;;;4974259;28;20409;-88
2020/12/24 04:18:03;;;;;;;;;;;8.30;99.90;;;;;;4973731;28;20072;-91
2020/12/24 04:20:29;;;;;;;;;;;8.40;99.90;;;;;;4974560;28;19914;-89
2020/12/24 04:22:54;;;;;;;;;;;8.40;99.90;;;;;;4974271;28;20380;-90
2020/12/24 04:25:20;;;;;;;;;;;8.30;99.90;;;;;;4974251;28;19909;-90
2020/12/24 04:27:46;;;;;;;;;;;8.40;99.90;;;;;;4973964;28;19961;-90
2020/12/24 04:30:11;;;;;;;;;;;8.30;99.90;;;;;;4973947;28;20325;-89
2020/12/24 04:32:36;;;;;;;;;;;8.30;99.90;;;;;;4973636;28;19957;-90
2020/12/24 04:35:04;;;;;;;;;;;8.30;99.90;;;;;;4974036;28;19914;-90
2020/12/24 04:37:32;;;;;;;;;;;8.30;99.90;;;;;;4973580;28;19913;-90
2020/12/24 04:39:58;;;;;;;;;;;8.30;99.90;;;;;;4974044;28;19920;-88
2020/12/24 04:42:23;;;;;;;;;;;8.30;99.90;;;;;;4973881;28;19914;-89
2020/12/24 04:44:49;;;;;;;;;;;8.20;99.90;;;;;;4991169;28;19924;-89
2020/12/24 04:47:16;;;;;;;;;;;8.20;99.90;;;;;;4973348;28;19953;-89
2020/12/24 04:49:42;;;;;;;;;;;8.10;99.90;;;;;;4973707;28;20263;-89
2020/12/24 04:52:08;;;;;;;;;;;8.10;99.90;;;;;;4973587;28;19922;-88
2020/12/24 04:54:36;;;;;;;;;;;8.10;99.90;;;;;;4973995;28;19914;-90
2020/12/24 04:57:06;;;;;;;;;;;8.00;99.90;;;;;;4973889;28;19960;-88
2020/12/24 04:59:34;;;;;;;;;;;8.00;99.90;;;;;;4973614;28;19913;-88
2020/12/24 05:02:05;;;;;;;;;;;8.10;99.90;;;;;;4973934;28;20348;-89
2020/12/24 05:04:31;;;;;;;;;;;8.10;99.90;;;;;;4974117;28;19920;-89
2020/12/24 05:07:00;;;;;;;;;;;8.10;99.90;;;;;;4974222;28;19913;-88
2020/12/24 05:09:25;;;;;;;;;;;8.10;99.90;;;;;;4978658;28;19920;-89
2020/12/24 05:11:54;;;;;;;;;;;8.00;99.90;;;;;;4973886;28;19937;-89
2020/12/24 05:14:21;;;;;;;;;;;8.10;99.90;;;;;;4973652;28;19925;-90
2020/12/24 05:17:01;;;;;;;;;;;8.10;99.90;;;;;;4973286;28;20529;-89
2020/12/24 05:19:31;;;;;;;;;;;8.10;99.90;;;;;;4973327;28;19972;-88
2020/12/24 05:21:57;;;;;;;;;;;8.00;99.90;;;;;;4973500;28;19914;-90
2020/12/24 05:24:24;;;;;;;;;;;8.00;99.90;;;;;;4973573;28;20093;-88
2020/12/24 05:26:50;;;;;;;;;;;7.90;99.90;;;;;;4976877;28;19925;-91
2020/12/24 05:29:15;;;;;;;;;;;7.80;99.90;;;;;;4994337;28;20349;-89
2020/12/24 05:31:46;;;;;;;;;;;7.80;99.90;;;;;;4977273;28;19964;-87
2020/12/24 05:34:17;;;;;;;;;;;7.80;99.90;;;;;;4977348;28;19914;-89
2020/12/24 05:36:43;;;;;;;;;;;7.80;99.90;;;;;;4977310;28;19914;-91
2020/12/24 05:39:09;;;;;;;;;;;7.70;99.90;;;;;;4976558;28;19925;-89
2020/12/24 05:41:35;;;;;;;;;;;7.70;99.90;;;;;;4977750;28;19921;-93
2020/12/24 05:44:01;;;;;;;;;;;7.70;99.90;;;;;;4977108;28;19968;-93
2020/12/24 05:46:27;;;;;;;;;;;7.90;99.90;;;;;;4977001;28;19913;-92
2020/12/24 05:48:53;;;;;;;;;;;7.90;99.90;;;;;;4976870;28;20028;-91
2020/12/24 05:51:19;;;;;;;;;;;7.90;99.90;;;;;;4977887;28;20262;-91
2020/12/24 05:53:45;;;;;;;;;;;7.90;99.90;;;;;;4977029;28;19914;-87
2020/12/24 05:56:23;;;;;;;;;;;7.80;99.90;;;;;;4976690;28;19913;-88
2020/12/24 05:58:53;;;;;;;;;;;7.70;99.90;;;;;;4976749;28;19984;-88
2020/12/24 06:01:26;;;;;;;;;;;7.60;99.90;;;;;;4994055;28;20183;-88
2020/12/24 06:04:02;;;;;;;;;;;7.70;99.90;;;;;;4977193;28;19980;-90
2020/12/24 06:06:42;;;;;;;;;;;7.80;99.90;;;;;;4976689;28;19949;-89
2020/12/24 06:09:13;;;;;;;;;;;7.70;99.90;;;;;;4982866;28;20013;-90
2020/12/24 06:11:49;;;;;;;;;;;7.70;99.90;;;;;;4996211;28;20215;-89
2020/12/24 06:14:27;;;;;;;;;;;7.60;99.90;;;;;;4990232;28;19922;-91
2020/12/24 06:17:01;;;;;;;;;;;7.60;99.90;;;;;;4970151;28;19937;-89
2020/12/24 06:19:27;;;;;;;;;;;7.60;99.90;;;;;;4973231;28;20527;-90
2020/12/24 06:21:53;;;;;;;;;;;7.70;99.90;;;;;;4972424;28;19910;-90
2020/12/24 06:24:19;;;;;;;;;;;7.70;99.90;;;;;;4975606;28;19964;-91
2020/12/24 06:26:49;;;;;;;;;;;7.70;99.90;;;;;;4982988;28;20309;-91
2020/12/24 06:29:18;;;;;;;;;;;7.70;99.90;;;;;;4974532;28;19914;-90
2020/12/24 06:31:45;;;;;;;;;;;7.70;99.90;;;;;;4974530;28;19922;-90
2020/12/24 06:34:37;;;;;;;;;;;7.70;99.90;;;;;;4975287;28;20285;-90
2020/12/24 06:37:11;;;;;;;;;;;7.70;99.90;;;;;;4987777;28;19913;-91
2020/12/24 06:39:43;;;;;;;;;;;7.70;99.90;;;;;;4982519;28;19918;-90
2020/12/24 06:42:28;;;;;;;;;;;7.80;99.90;;;;;;4972761;28;19918;-92
2020/12/24 06:44:56;;;;;;;;;;;7.80;99.90;;;;;;4975187;28;20396;-90
2020/12/24 06:47:24;;;;;;;;;;;7.80;99.90;;;;;;4973154;28;19992;-90
2020/12/24 06:49:49;;;;;;;;;;;7.80;99.90;;;;;;4974530;28;19972;-91
2020/12/24 06:52:26;;;;;;;;;;;7.80;99.90;;;;;;4972373;28;19953;-90
2020/12/24 06:55:10;;;;;;;;;;;7.70;99.90;;;;;;4975463;28;19914;-90
2020/12/24 06:57:39;;;;;;;;;;;7.80;99.90;;;;;;4972827;28;19918;-91
2020/12/24 07:00:18;;;;;;;;;;;7.80;99.90;;;;;;4975364;28;19914;-91
2020/12/24 07:02:51;;;;;;;;;;;7.80;99.90;;;;;;4975520;28;19939;-90
2020/12/24 07:05:35;;;;;;;;;;;7.70;99.90;;;;;;4975045;28;19914;-90
2020/12/24 07:08:01;;;;;;;;;;;7.70;99.90;;;;;;4971424;28;19972;-91
2020/12/24 07:10:45;;;;;;;;;;;7.80;99.90;;;;;;4986931;28;20435;-91
2020/12/24 07:13:29;;;;;;;;;;;7.80;99.90;;;;;;4974519;28;19929;-89
2020/12/24 07:15:54;;;;;;;;;;;7.80;99.90;;;;;;4971981;28;20377;-89
2020/12/24 07:18:21;;;;;;;;;;;7.70;99.90;;;;;;4974568;28;19976;-92
2020/12/24 07:20:51;;;;;;;;;;;7.70;99.90;;;;;;4975118;28;19964;-92
2020/12/24 07:23:27;;;;;;;;;;;7.70;99.90;;;;;;4992476;28;19910;-92
2020/12/24 07:25:58;;;;;;;;;;;7.70;99.90;;;;;;4975151;28;19921;-92
2020/12/24 07:28:28;;;;;;;;;;;7.70;99.90;;;;;;4992579;28;19937;-91
2020/12/24 07:31:03;;;;;;;;;;;7.70;99.90;;;;;;4974647;28;20407;-91
2020/12/24 07:33:28;;;;;;;;;;;7.70;99.90;;;;;;4991803;28;20590;-91
2020/12/24 07:35:54;;;;;;;;;;;7.80;99.90;;;;;;4973001;28;20330;-91
2020/12/24 07:38:26;;;;;;;;;;;7.80;99.90;;;;;;4978455;28;19918;-89
2020/12/24 07:40:52;;;;;;;;;;;7.80;99.90;;;;;;4988306;28;19914;-90
2020/12/24 07:43:17;;;;;;;;;;;7.80;99.90;;;;;;4984796;28;19936;-89
2020/12/24 07:45:43;;;;;;;;;;;7.80;99.90;;;;;;4972085;28;19921;-91
2020/12/24 07:48:15;;;;;;;;;;;7.90;99.90;;;;;;4971300;28;20287;-90
2020/12/24 07:50:43;;;;;;;;;;;7.90;99.90;;;;;;4975181;28;19918;-92
2020/12/24 07:53:15;;;;;;;;;;;7.90;99.90;;;;;;4972892;28;19922;-88
2020/12/24 07:55:41;;;;;;;;;;;7.90;99.90;;;;;;4971033;28;19914;-89
2020/12/24 07:58:07;;;;;;;;;;;7.90;99.90;;;;;;4971551;28;19914;-88
2020/12/24 08:00:39;;;;;;;;;;;7.90;99.90;;;;;;4972045;28;20331;-88
2020/12/24 08:03:13;;;;;;;;;;;7.90;99.90;;;;;;4984823;28;19924;-87
2020/12/24 08:05:41;;;;;;;;;;;8.00;99.90;;;;;;4970432;28;19929;-90
2020/12/24 08:08:07;;;;;;;;;;;8.00;99.90;;;;;;4973500;28;19914;-89
2020/12/24 08:10:39;;;;;;;;;;;7.90;99.90;;;;;;4975185;28;20400;-90
2020/12/24 08:13:05;;;;;;;;;;;8.00;99.90;;;;;;4974099;28;19922;-90
2020/12/24 08:15:34;;;;;;;;;;;8.00;99.90;;;;;;4991736;28;20326;-87
2020/12/24 08:18:03;;;;;;;;;;;8.00;99.90;;;;;;4974119;28;20389;-88
2020/12/24 08:20:40;;;;;;;;;;;8.00;99.90;;;;;;4974629;28;19922;-88
2020/12/24 08:23:12;;;;;;;;;;;8.00;99.90;;;;;;4974809;28;19914;-87
2020/12/24 08:25:37;;;;;;;;;;;8.00;99.90;;;;;;4974214;28;20013;-88
2020/12/24 08:28:03;;;;;;;;;;;8.00;99.90;;;;;;4974349;28;20004;-87
2020/12/24 08:30:29;;;;;;;;;;;8.00;99.90;;;;;;4991759;28;20033;-89
2020/12/24 08:32:55;;;;;;;;;;;8.00;99.90;;;;;;4974106;28;19964;-88
2020/12/24 08:35:23;;;;;;;;;;;8.00;99.90;;;;;;4974136;28;20369;-88
2020/12/24 08:37:51;;;;;;;;;;;8.00;99.90;;;;;;4974639;28;19918;-88
2020/12/24 08:40:24;;;;;;;;;;;8.00;99.90;;;;;;4974272;28;19920;-89
2020/12/24 08:43:01;;;;;;;;;;;8.00;99.90;;;;;;4974326;28;19921;-89
2020/12/24 08:45:31;;;;;;;;;;;8.00;99.90;;;;;;4992029;28;19937;-89
2020/12/24 08:47:56;;;;;;;;;;;8.00;99.90;;;;;;4974561;28;19914;-90
2020/12/24 08:50:29;;;;;;;;;;;8.00;99.90;;;;;;4975474;28;19956;-90
2020/12/24 08:52:57;;;;;;;;;;;8.00;99.90;;;;;;4974523;28;20005;-90
2020/12/24 08:55:27;;;;;;;;;;;8.00;99.90;;;;;;4973948;28;19910;-90
2020/12/24 08:57:53;;;;;;;;;;;8.00;99.90;;;;;;4973683;28;19921;-91
2020/12/24 09:00:18;;;;;;;;;;;8.00;99.90;;;;;;4971570;28;20115;-90
2020/12/24 09:02:45;;;;;;;;;;;8.00;99.90;;;;;;4975548;28;20032;-89
2020/12/24 09:05:11;;;;;;;;;;;8.00;99.90;;;;;;4994935;28;19913;-91
2020/12/24 09:07:40;;;;;;;;;;;8.00;99.90;;;;;;4977797;28;19921;-90
2020/12/24 09:10:14;;;;;;;;;;;8.00;99.90;;;;;;4980426;28;19925;-90
2020/12/24 09:12:41;;;;;;;;;;;8.00;99.90;;;;;;4973860;28;19926;-89
2020/12/24 09:15:10;;;;;;;;;;;8.00;99.90;;;;;;4975124;28;20277;-89
2020/12/24 09:17:50;;;;;;;;;;;8.00;99.90;;;;;;4976681;28;20024;-89
2020/12/24 09:20:26;;;;;;;;;;;8.00;99.90;;;;;;4972795;28;20012;-90
2020/12/24 09:22:54;;;;;;;;;;;8.00;99.90;;;;;;4989593;28;19917;-89
2020/12/24 09:25:46;;;;;;;;;;;8.00;99.90;;;;;;4977240;28;19921;-89
2020/12/24 09:28:26;;;;;;;;;;;8.00;99.90;;;;;;4989395;28;20236;-89
2020/12/24 09:30:59;;;;;;;;;;;8.00;99.90;;;;;;4977253;28;19913;-89
2020/12/24 09:33:26;;;;;;;;;;;8.00;99.90;;;;;;4977688;28;19928;-88
2020/12/24 09:35:54;;;;;;;;;;;8.00;99.90;;;;;;4977305;28;19910;-89
2020/12/24 09:38:22;;;;;;;;;;;8.00;99.90;;;;;;4994637;28;20361;-88
2020/12/24 09:40:49;;;;;;;;;;;8.00;99.90;;;;;;4976898;28;19925;-89
2020/12/24 09:43:15;;;;;;;;;;;8.00;99.90;;;;;;4976988;28;19967;-90
2020/12/24 09:45:41;;;;;;;;;;;8.10;99.90;;;;;;4994267;28;19917;-89
2020/12/24 09:48:08;;;;;;;;;;;8.10;99.90;;;;;;4977061;28;19914;-90
2020/12/24 09:50:37;;;;;;;;;;;8.10;99.90;;;;;;4977608;28;19913;-89
2020/12/24 09:53:07;;;;;;;;;;;8.10;99.90;;;;;;4977012;28;19969;-89
2020/12/24 11:13:22;;;;;;;;;;;9.00;99.90;;;;;;5043208;22;19936;-88
2020/12/24 11:15:48;;;;;;;;;;;9.00;99.90;;;;;;5014251;28;19917;-88
2020/12/24 11:18:18;;;;;;;;;;;9.10;99.90;;;;;;5016939;28;19920;-88
2020/12/24 11:20:44;;;;;;;;;;;9.20;99.90;;;;;;5022140;28;19920;-89
2020/12/24 11:23:10;;;;;;;;;;;9.20;99.90;;;;;;5022543;28;20371;-88
2020/12/24 11:25:35;;;;;;;;;;;9.30;99.90;;;;;;5025208;28;19913;-88
2020/12/24 11:28:01;;;;;;;;;;;9.30;99.90;;;;;;5042117;28;20636;-89
2020/12/24 11:30:27;;;;;;;;;;;9.40;99.90;;;;;;5040087;28;20368;-89
2020/12/24 11:32:53;;;;;;;;;;;9.40;99.90;;;;;;5024522;28;19920;-89
2020/12/24 11:35:18;;;;;;;;;;;9.40;99.90;;;;;;5022471;28;19940;-89
2020/12/24 11:37:44;;;;;;;;;;;9.40;99.90;;;;;;5022272;28;19913;-88
2020/12/24 11:40:10;;;;;;;;;;;9.30;99.90;;;;;;5031165;28;19998;-91
2020/12/24 11:42:35;;;;;;;;;;;9.30;99.90;;;;;;5033304;28;19920;-90
2020/12/24 11:45:04;;;;;;;;;;;9.30;99.90;;;;;;5028150;28;19928;-91
2020/12/24 11:47:29;;;;;;;;;;;9.30;99.90;;;;;;5032175;28;19912;-91
2020/12/24 11:49:55;;;;;;;;;;;9.30;99.90;;;;;;5032259;28;20257;-90
2020/12/24 11:52:22;;;;;;;;;;;9.30;99.90;;;;;;5033001;28;19974;-91
2020/12/24 11:54:48;;;;;;;;;;;9.30;99.90;;;;;;5032304;28;20118;-92
2020/12/24 11:57:13;;;;;;;;;;;9.40;99.90;;;;;;5031223;28;19992;-90
2020/12/24 11:59:40;;;;;;;;;;;9.40;99.90;;;;;;5030031;28;19913;-91
2020/12/24 12:02:06;;;;;;;;;;;9.40;99.90;;;;;;5030249;28;20313;-89
2020/12/24 12:04:31;;;;;;;;;;;9.40;99.90;;;;;;5031455;28;19913;-90
2020/12/24 12:06:57;;;;;;;;;;;9.50;99.90;;;;;;5031143;28;20384;-91
2020/12/24 12:09:23;;;;;;;;;;;9.50;99.90;;;;;;5028317;28;19917;-90
2020/12/24 12:11:51;;;;;;;;;;;9.50;99.90;;;;;;5043469;28;20318;-89
2020/12/24 12:14:16;;;;;;;;;;;9.40;99.90;;;;;;5024138;28;20055;-87
2020/12/24 12:16:44;;;;;;;;;;;9.40;99.90;;;;;;5022062;28;19949;-90
2020/12/24 12:19:12;;;;;;;;;;;9.40;99.90;;;;;;5022873;28;19959;-90
2020/12/24 12:21:38;;;;;;;;;;;9.40;99.90;;;;;;5051381;28;19972;-89
2020/12/24 12:24:06;;;;;;;;;;;9.40;99.90;;;;;;5033445;28;20012;-89
2020/12/24 12:26:32;;;;;;;;;;;9.40;99.90;;;;;;5033792;28;19968;-91
2020/12/24 12:29:00;;;;;;;;;;;9.40;99.90;;;;;;5033671;28;19913;-90
2020/12/24 12:31:25;;;;;;;;;;;9.50;99.90;;;;;;5033535;28;19913;-90
2020/12/24 12:33:54;;;;;;;;;;;9.50;99.90;;;;;;5033138;28;19924;-90
2020/12/24 12:36:22;;;;;;;;;;;9.50;99.90;;;;;;5036593;28;20473;-90
2020/12/24 12:38:48;;;;;;;;;;;9.50;99.90;;;;;;5037114;28;19909;-90
2020/12/24 12:41:15;;;;;;;;;;;9.50;99.40;;;;;;5036783;28;19936;-91
2020/12/24 12:43:40;;;;;;;;;;;9.50;99.20;;;;;;5023160;28;19917;-90
2020/12/24 12:46:06;;;;;;;;;;;9.60;99.90;;;;;;5016779;28;19928;-89
2020/12/24 12:48:32;;;;;;;;;;;9.70;98.90;;;;;;5017480;28;19913;-91
2020/12/24 12:50:58;;;;;;;;;;;9.70;99.40;;;;;;5017682;28;20242;-89
2020/12/24 12:53:23;;;;;;;;;;;9.60;99.90;;;;;;5017407;28;20412;-90
2020/12/24 12:55:51;;;;;;;;;;;9.60;99.00;;;;;;5017305;28;19921;-90
2020/12/24 12:58:17;;;;;;;;;;;9.60;99.40;;;;;;5034691;28;20042;-89
2020/12/24 13:00:43;;;;;;;;;;;9.60;99.40;;;;;;5016731;28;19914;-90
2020/12/24 13:03:08;;;;;;;;;;;9.60;99.80;;;;;;5016721;28;19920;-89
2020/12/24 13:05:34;;;;;;;;;;;9.50;99.30;;;;;;5016892;28;19913;-91
2020/12/24 13:07:59;;;;;;;;;;;9.50;99.90;;;;;;5016772;28;19908;-90
2020/12/24 13:10:25;;;;;;;;;;;9.60;99.80;;;;;;5029174;28;19924;-89
2020/12/24 13:12:50;;;;;;;;;;;9.60;99.30;;;;;;5025979;28;19971;-90
2020/12/24 13:15:18;;;;;;;;;;;9.50;99.90;;;;;;5027020;28;19921;-89
2020/12/24 13:17:46;;;;;;;;;;;9.50;99.40;;;;;;5029167;28;20369;-89
2020/12/24 13:20:12;;;;;;;;;;;9.40;99.90;;;;;;5026154;28;20336;-89
2020/12/24 13:22:40;;;;;;;;;;;9.40;99.90;;;;;;5033071;28;19909;-89
2020/12/24 13:25:07;;;;;;;;;;;9.40;99.70;;;;;;5021373;28;19971;-89
2020/12/24 13:27:35;;;;;;;;;;;9.40;99.90;;;;;;5023938;28;19968;-91
2020/12/24 13:30:01;;;;;;;;;;;9.40;99.40;;;;;;5023293;28;19917;-89
2020/12/24 13:32:27;;;;;;;;;;;9.40;99.90;;;;;;5031617;28;19932;-89
2020/12/24 13:34:57;;;;;;;;;;;9.30;98.80;;;;;;5030106;28;19963;-89
2020/12/24 13:37:23;;;;;;;;;;;9.30;99.90;;;;;;5024898;28;20293;-89
2020/12/24 13:39:48;;;;;;;;;;;9.30;99.90;;;;;;5022843;28;19976;-90
2020/12/24 13:42:14;;;;;;;;;;;9.30;99.20;;;;;;5013921;28;20004;-89
2020/12/24 13:44:42;;;;;;;;;;;9.30;99.90;;;;;;5014297;28;19938;-89
2020/12/24 13:47:10;;;;;;;;;;;9.30;99.90;;;;;;5029684;28;19916;-90
2020/12/24 13:49:35;;;;;;;;;;;9.30;99.50;;;;;;5031089;28;19910;-90
2020/12/24 13:52:01;;;;;;;;;;;9.30;99.90;;;;;;5022658;28;20427;-90
2020/12/24 13:54:28;;;;;;;;;;;9.30;99.60;;;;;;5033135;28;20419;-88
2020/12/24 13:56:56;;;;;;;;;;;9.30;99.90;;;;;;5023435;28;19971;-89
2020/12/24 13:59:24;;;;;;;;;;;9.20;99.90;;;;;;5021642;28;19909;-88
2020/12/24 14:01:51;;;;;;;;;;;9.20;99.90;;;;;;5023100;28;19917;-88
2020/12/24 14:04:16;;;;;;;;;;;9.20;99.90;;;;;;5024399;28;20365;-90
2020/12/24 14:06:46;;;;;;;;;;;9.20;99.90;;;;;;5023632;28;19920;-88
2020/12/24 14:09:14;;;;;;;;;;;9.20;99.90;;;;;;5022297;28;20380;-90
2020/12/24 14:11:44;;;;;;;;;;;9.10;99.90;;;;;;5022615;28;19913;-88
2020/12/24 14:14:10;;;;;;;;;;;9.10;99.90;;;;;;5021387;28;19949;-88
2020/12/24 14:16:38;;;;;;;;;;;9.00;99.90;;;;;;5022631;28;19952;-90
2020/12/24 14:19:04;;;;;;;;;;;9.00;99.90;;;;;;5026736;28;19913;-88
2020/12/24 14:21:30;;;;;;;;;;;8.90;99.90;;;;;;5028543;28;19913;-89
2020/12/24 14:23:58;;;;;;;;;;;8.90;99.90;;;;;;5023107;28;19917;-90
2020/12/24 14:26:23;;;;;;;;;;;8.80;99.90;;;;;;5019892;28;19914;-88
2020/12/24 14:28:49;;;;;;;;;;;8.70;99.90;;;;;;5021427;28;19929;-89
2020/12/24 14:31:14;;;;;;;;;;;8.70;99.90;;;;;;5030275;28;19913;-91
2020/12/24 14:33:42;;;;;;;;;;;8.70;99.90;;;;;;5031078;28;20012;-89
2020/12/24 14:36:17;;;;;;;;;;;8.60;99.90;;;;;;5021095;28;20324;-90
2020/12/24 14:38:43;;;;;;;;;;;8.60;99.90;;;;;;5030692;28;19913;-89
2020/12/24 14:41:09;;;;;;;;;;;8.60;99.90;;;;;;5022649;28;19924;-88
2020/12/24 14:43:35;;;;;;;;;;;8.50;99.90;;;;;;5031216;28;19924;-89
2020/12/24 14:46:02;;;;;;;;;;;8.50;99.90;;;;;;5031649;28;19963;-89
2020/12/24 14:48:28;;;;;;;;;;;8.50;99.90;;;;;;5030877;28;19913;-89
2020/12/24 14:50:54;;;;;;;;;;;8.50;99.90;;;;;;5023170;28;19928;-87
2020/12/24 14:53:22;;;;;;;;;;;8.50;99.90;;;;;;5022244;28;19917;-90
2020/12/24 14:55:50;;;;;;;;;;;8.40;99.90;;;;;;5022044;28;19917;-88
2020/12/24 14:58:15;;;;;;;;;;;8.40;99.90;;;;;;5031213;28;19913;-89
2020/12/24 15:00:41;;;;;;;;;;;8.40;99.90;;;;;;5022127;28;19936;-91
2020/12/24 15:03:08;;;;;;;;;;;8.40;99.90;;;;;;5019729;28;19975;-90
2020/12/24 15:05:34;;;;;;;;;;;8.30;99.90;;;;;;5025007;28;20341;-89
2020/12/24 15:08:00;;;;;;;;;;;8.30;99.90;;;;;;5031111;28;20319;-92
2020/12/24 15:10:25;;;;;;;;;;;8.30;99.90;;;;;;5021289;28;19920;-89
2020/12/24 15:12:51;;;;;;;;;;;8.40;99.90;;;;;;5020531;28;19932;-91
2020/12/24 15:15:17;;;;;;;;;;;8.40;99.90;;;;;;5018998;28;19921;-88
2020/12/24 15:17:45;;;;;;;;;;;8.30;99.90;;;;;;5019094;28;19921;-88
2020/12/24 15:20:11;;;;;;;;;;;8.20;99.90;;;;;;5019628;28;19921;-87
2020/12/24 15:22:36;;;;;;;;;;;8.20;99.90;;;;;;5021164;28;20048;-88
2020/12/24 15:25:03;;;;;;;;;;;8.20;99.90;;;;;;5019412;28;19913;-90
2020/12/24 15:27:28;;;;;;;;;;;8.20;99.90;;;;;;5020496;28;19928;-90
2020/12/24 15:29:56;;;;;;;;;;;8.10;99.90;;;;;;5015734;28;19914;-90
2020/12/24 15:32:24;;;;;;;;;;;8.10;99.90;;;;;;5021659;28;20048;-89
2020/12/24 15:34:50;;;;;;;;;;;8.10;99.90;;;;;;5019806;28;19962;-89
2020/12/24 15:37:16;;;;;;;;;;;8.20;99.90;;;;;;5020985;28;19992;-89
2020/12/24 15:39:42;;;;;;;;;;;8.10;99.90;;;;;;5024430;28;19909;-89
2020/12/24 15:42:10;;;;;;;;;;;8.10;99.90;;;;;;5025900;28;20380;-89
2020/12/24 15:44:35;;;;;;;;;;;8.00;99.90;;;;;;5029437;28;19921;-90
2020/12/24 15:47:04;;;;;;;;;;;8.00;99.90;;;;;;5030580;28;20510;-90
2020/12/24 15:49:30;;;;;;;;;;;8.00;99.90;;;;;;5030170;28;19913;-90